sensor_id;sensor_type;location;lat;lon;timestamp;pressure;altitude;pressure_sealevel;temperature;humidity
19676;BME280;39539;52.202;9.876;2023-02-16T00:01:48;101600.53;;;1.81;100.00
19676;BME280;39539;52.202;9.876;2023-02-16T00:04:31;101613.66;;;1.81;100.00
19676;BME280;39539;52.202;9.876;2023-02-16T00:06:57;101612.56;;;1.84;100.00
19676;BME280;39539;52.202;9.876;2023-02-16T00:09:23;101619.03;;;1.79;100.00
19676;BME280;39539;52.202;9.876;2023-02-16T00:11:50;101614.63;;;1.80;100.00
19676;BME280;39539;52.202;9.876;2023-02-16T00:14:36;101610.34;;;1.79;100.00
19676;BME280;39539;52.202;9.876;2023-02-16T00:17:04;101611.16;;;1.79;100.00
19676;BME280;39539;52.202;9.876;2023-02-16T00:19:34;101624.38;;;1.78;100.00
19676;BME280;39539;52.202;9.876;2023-02-16T00:22:01;101622.41;;;1.70;100.00
19676;BME280;39539;52.202;9.876;2023-02-16T00:24:28;101630.44;;;1.57;100.00
19676;BME280;39539;52.202;9.876;2023-02-16T00:26:54;101621.66;;;1.47;100.00
19676;BME280;39539;52.202;9.876;2023-02-16T00:29:24;101604.31;;;1.35;100.00
19676;BME280;39539;52.202;9.876;2023-02-16T00:31:50;101615.84;;;1.32;100.00
19676;BME280;39539;52.202;9.876;2023-02-16T00:34:28;101616.34;;;1.26;100.00
19676;BME280;39539;52.202;9.876;2023-02-16T00:36:55;101616.00;;;1.31;100.00
19676;BME280;39539;52.202;9.876;2023-02-16T00:39:21;101612.53;;;1.30;100.00
19676;BME280;39539;52.202;9.876;2023-02-16T00:41:46;101604.44;;;1.33;100.00
19676;BME280;39539;52.202;9.876;2023-02-16T00:44:18;101599.78;;;1.37;100.00
19676;BME280;39539;52.202;9.876;2023-02-16T00:46:45;101598.44;;;1.43;100.00
19676;BME280;39539;52.202;9.876;2023-02-16T00:49:20;101608.44;;;1.49;100.00
19676;BME280;39539;52.202;9.876;2023-02-16T00:51:46;101604.53;;;1.43;100.00
19676;BME280;39539;52.202;9.876;2023-02-16T00:54:12;101597.38;;;1.45;100.00
19676;BME280;39539;52.202;9.876;2023-02-16T00:56:38;101598.44;;;1.43;100.00
19676;BME280;39539;52.202;9.876;2023-02-16T00:59:06;101590.69;;;1.41;100.00
19676;BME280;39539;52.202;9.876;2023-02-16T01:01:33;101591.66;;;1.40;100.00
19676;BME280;39539;52.202;9.876;2023-02-16T01:04:01;101579.16;;;1.44;100.00
19676;BME280;39539;52.202;9.876;2023-02-16T01:06:27;101593.03;;;1.55;100.00
19676;BME280;39539;52.202;9.876;2023-02-16T01:09:13;101582.19;;;1.60;100.00
19676;BME280;39539;52.202;9.876;2023-02-16T01:11:58;101586.16;;;1.75;100.00
19676;BME280;39539;52.202;9.876;2023-02-16T01:14:24;101576.38;;;1.77;100.00
19676;BME280;39539;52.202;9.876;2023-02-16T01:16:50;101569.94;;;1.82;100.00
19676;BME280;39539;52.202;9.876;2023-02-16T01:19:15;101557.03;;;1.90;100.00
19676;BME280;39539;52.202;9.876;2023-02-16T01:21:41;101564.69;;;2.02;100.00
19676;BME280;39539;52.202;9.876;2023-02-16T01:24:06;101555.59;;;2.07;100.00
19676;BME280;39539;52.202;9.876;2023-02-16T01:26:37;101549.78;;;2.03;100.00
19676;BME280;39539;52.202;9.876;2023-02-16T01:29:04;101542.91;;;2.02;100.00
19676;BME280;39539;52.202;9.876;2023-02-16T01:31:29;101542.31;;;1.98;100.00
19676;BME280;39539;52.202;9.876;2023-02-16T01:33:54;101541.47;;;1.98;100.00
19676;BME280;39539;52.202;9.876;2023-02-16T01:36:25;101553.22;;;2.03;100.00
19676;BME280;39539;52.202;9.876;2023-02-16T01:38:52;101552.28;;;2.05;100.00
19676;BME280;39539;52.202;9.876;2023-02-16T01:44:04;101551.00;;;1.99;100.00
19676;BME280;39539;52.202;9.876;2023-02-16T01:46:59;101563.88;;;2.02;100.00
19676;BME280;39539;52.202;9.876;2023-02-16T01:49:27;101554.59;;;1.98;100.00
19676;BME280;39539;52.202;9.876;2023-02-16T01:54:38;101557.13;;;2.09;100.00
19676;BME280;39539;52.202;9.876;2023-02-16T01:57:26;101558.38;;;2.05;100.00
19676;BME280;39539;52.202;9.876;2023-02-16T02:02:22;101562.13;;;1.91;100.00
19676;BME280;39539;52.202;9.876;2023-02-16T02:04:55;101556.59;;;1.85;100.00
19676;BME280;39539;52.202;9.876;2023-02-16T02:10:44;101554.78;;;1.85;100.00
19676;BME280;39539;52.202;9.876;2023-02-16T02:13:53;101562.97;;;1.92;100.00
19676;BME280;39539;52.202;9.876;2023-02-16T02:16:00;101554.41;;;1.90;100.00
19676;BME280;39539;52.202;9.876;2023-02-16T02:18:25;101546.47;;;2.01;100.00
19676;BME280;39539;52.202;9.876;2023-02-16T02:29:55;101527.53;;;2.18;100.00
19676;BME280;39539;52.202;9.876;2023-02-16T02:32:33;101522.03;;;2.21;100.00
19676;BME280;39539;52.202;9.876;2023-02-16T02:40:51;101525.66;;;2.40;100.00
19676;BME280;39539;52.202;9.876;2023-02-16T02:46:29;101510.03;;;2.29;100.00
19676;BME280;39539;52.202;9.876;2023-02-16T02:48:56;101515.72;;;2.34;100.00
19676;BME280;39539;52.202;9.876;2023-02-16T02:51:21;101510.75;;;2.40;100.00
19676;BME280;39539;52.202;9.876;2023-02-16T02:56:47;101511.00;;;2.28;100.00
19676;BME280;39539;52.202;9.876;2023-02-16T02:59:33;101513.63;;;2.28;100.00
19676;BME280;39539;52.202;9.876;2023-02-16T03:02:20;101513.66;;;2.37;100.00
19676;BME280;39539;52.202;9.876;2023-02-16T03:04:48;101509.25;;;2.38;100.00
19676;BME280;39539;52.202;9.876;2023-02-16T03:07:15;101516.28;;;2.37;100.00
19676;BME280;39539;52.202;9.876;2023-02-16T03:09:41;101518.78;;;2.39;100.00
19676;BME280;39539;52.202;9.876;2023-02-16T03:12:08;101520.41;;;2.40;100.00
19676;BME280;39539;52.202;9.876;2023-02-16T03:14:55;101522.41;;;2.47;100.00
19676;BME280;39539;52.202;9.876;2023-02-16T03:17:28;101523.47;;;2.45;100.00
19676;BME280;39539;52.202;9.876;2023-02-16T03:20:16;101525.66;;;2.40;100.00
19676;BME280;39539;52.202;9.876;2023-02-16T03:23:01;101522.88;;;2.32;100.00
19676;BME280;39539;52.202;9.876;2023-02-16T03:25:47;101537.03;;;2.19;100.00
19676;BME280;39539;52.202;9.876;2023-02-16T03:28:33;101533.94;;;2.05;100.00
19676;BME280;39539;52.202;9.876;2023-02-16T03:31:23;101532.03;;;1.86;100.00
19676;BME280;39539;52.202;9.876;2023-02-16T03:33:52;101530.81;;;1.90;100.00
19676;BME280;39539;52.202;9.876;2023-02-16T03:36:20;101542.50;;;1.86;100.00
19676;BME280;39539;52.202;9.876;2023-02-16T03:38:47;101538.63;;;1.80;100.00
19676;BME280;39539;52.202;9.876;2023-02-16T03:41:12;101535.47;;;1.65;100.00
19676;BME280;39539;52.202;9.876;2023-02-16T03:43:37;101539.44;;;1.60;100.00
19676;BME280;39539;52.202;9.876;2023-02-16T03:46:03;101540.41;;;1.59;100.00
19676;BME280;39539;52.202;9.876;2023-02-16T03:48:28;101536.06;;;1.69;100.00
19676;BME280;39539;52.202;9.876;2023-02-16T03:50:54;101536.06;;;1.69;100.00
19676;BME280;39539;52.202;9.876;2023-02-16T03:53:19;101539.31;;;1.82;100.00
19676;BME280;39539;52.202;9.876;2023-02-16T03:55:46;101540.78;;;1.75;100.00
19676;BME280;39539;52.202;9.876;2023-02-16T03:58:15;101543.03;;;1.79;100.00
19676;BME280;39539;52.202;9.876;2023-02-16T04:00:41;101548.31;;;1.89;100.00
19676;BME280;39539;52.202;9.876;2023-02-16T04:09:50;101544.28;;;2.06;100.00
19676;BME280;39539;52.202;9.876;2023-02-16T04:12:15;101547.63;;;2.08;100.00
19676;BME280;39539;52.202;9.876;2023-02-16T04:14:59;101540.47;;;2.10;100.00
19676;BME280;39539;52.202;9.876;2023-02-16T04:17:25;101547.72;;;2.28;100.00
19676;BME280;39539;52.202;9.876;2023-02-16T04:19:50;101544.38;;;2.25;100.00
19676;BME280;39539;52.202;9.876;2023-02-16T04:22:16;101547.81;;;2.16;100.00
19676;BME280;39539;52.202;9.876;2023-02-16T04:24:41;101551.22;;;2.07;100.00
19676;BME280;39539;52.202;9.876;2023-02-16T04:27:06;101545.19;;;2.16;100.00
19676;BME280;39539;52.202;9.876;2023-02-16T04:29:32;101541.31;;;2.20;100.00
19676;BME280;39539;52.202;9.876;2023-02-16T04:31:57;101546.31;;;2.23;100.00
19676;BME280;39539;52.202;9.876;2023-02-16T04:34:22;101542.28;;;2.19;100.00
19676;BME280;39539;52.202;9.876;2023-02-16T04:36:48;101545.47;;;2.23;100.00
19676;BME280;39539;52.202;9.876;2023-02-16T04:39:13;101543.56;;;2.25;100.00
19676;BME280;39539;52.202;9.876;2023-02-16T04:41:39;101540.38;;;2.21;100.00
19676;BME280;39539;52.202;9.876;2023-02-16T04:44:04;101530.81;;;2.20;100.00
19676;BME280;39539;52.202;9.876;2023-02-16T04:46:30;101521.41;;;2.08;100.00
19676;BME280;39539;52.202;9.876;2023-02-16T04:48:56;101516.03;;;1.89;100.00
19676;BME280;39539;52.202;9.876;2023-02-16T04:51:21;101504.22;;;1.52;100.00
19676;BME280;39539;52.202;9.876;2023-02-16T04:53:47;101476.44;;;1.40;100.00
19676;BME280;39539;52.202;9.876;2023-02-16T04:56:12;101479.69;;;1.53;100.00
19676;BME280;39539;52.202;9.876;2023-02-16T04:58:39;101484.16;;;1.63;100.00
19676;BME280;39539;52.202;9.876;2023-02-16T05:01:05;101489.97;;;1.66;100.00
19676;BME280;39539;52.202;9.876;2023-02-16T05:03:31;101481.66;;;1.61;100.00
19676;BME280;39539;52.202;9.876;2023-02-16T05:05:56;101477.97;;;1.43;100.00
19676;BME280;39539;52.202;9.876;2023-02-16T05:08:22;101472.06;;;1.29;100.00
19676;BME280;39539;52.202;9.876;2023-02-16T05:10:47;101479.22;;;1.27;100.00
19676;BME280;39539;52.202;9.876;2023-02-16T05:13:33;101496.84;;;1.25;100.00
19676;BME280;39539;52.202;9.876;2023-02-16T05:16:19;101488.69;;;1.07;100.00
19676;BME280;39539;52.202;9.876;2023-02-16T05:18:45;101496.00;;;0.93;100.00
19676;BME280;39539;52.202;9.876;2023-02-16T05:21:11;101486.28;;;0.83;100.00
19676;BME280;39539;52.202;9.876;2023-02-16T05:23:59;101491.78;;;0.80;100.00
19676;BME280;39539;52.202;9.876;2023-02-16T05:26:25;101491.78;;;0.80;100.00
19676;BME280;39539;52.202;9.876;2023-02-16T05:28:51;101507.69;;;0.88;100.00
19676;BME280;39539;52.202;9.876;2023-02-16T05:31:17;101504.81;;;0.92;100.00
19676;BME280;39539;52.202;9.876;2023-02-16T05:33:42;101501.97;;;0.95;100.00
19676;BME280;39539;52.202;9.876;2023-02-16T05:36:08;101514.53;;;1.01;100.00
19676;BME280;39539;52.202;9.876;2023-02-16T05:38:33;101507.19;;;0.95;100.00
19676;BME280;39539;52.202;9.876;2023-02-16T05:40:59;101516.69;;;0.96;100.00
19676;BME280;39539;52.202;9.876;2023-02-16T05:43:24;101504.94;;;0.90;100.00
19676;BME280;39539;52.202;9.876;2023-02-16T05:45:50;101514.47;;;0.91;100.00
19676;BME280;39539;52.202;9.876;2023-02-16T05:48:15;101511.63;;;0.83;100.00
19676;BME280;39539;52.202;9.876;2023-02-16T05:50:41;101490.34;;;0.76;100.00
19676;BME280;39539;52.202;9.876;2023-02-16T05:53:06;101495.34;;;0.79;100.00
19676;BME280;39539;52.202;9.876;2023-02-16T05:55:31;101497.22;;;0.88;100.00
19676;BME280;39539;52.202;9.876;2023-02-16T05:57:57;101502.31;;;0.90;100.00
19676;BME280;39539;52.202;9.876;2023-02-16T06:00:22;101500.09;;;0.85;100.00
19676;BME280;39539;52.202;9.876;2023-02-16T06:02:48;101497.50;;;0.74;100.00
19676;BME280;39539;52.202;9.876;2023-02-16T06:05:13;101500.13;;;0.63;100.00
19676;BME280;39539;52.202;9.876;2023-02-16T06:07:39;101499.53;;;0.59;100.00
19676;BME280;39539;52.202;9.876;2023-02-16T06:10:04;101492.78;;;0.46;100.00
19676;BME280;39539;52.202;9.876;2023-02-16T06:12:30;101516.78;;;0.51;100.00
19676;BME280;39539;52.202;9.876;2023-02-16T06:14:57;101513.91;;;0.42;100.00
19676;BME280;39539;52.202;9.876;2023-02-16T06:17:22;101510.72;;;0.39;100.00
19676;BME280;39539;52.202;9.876;2023-02-16T06:19:48;101513.09;;;0.42;100.00
19676;BME280;39539;52.202;9.876;2023-02-16T06:22:13;101519.41;;;0.39;100.00
19676;BME280;39539;52.202;9.876;2023-02-16T06:24:38;101509.91;;;0.27;100.00
19676;BME280;39539;52.202;9.876;2023-02-16T06:27:04;101524.16;;;0.46;100.00
19676;BME280;39539;52.202;9.876;2023-02-16T06:29:30;101509.66;;;0.53;100.00
19676;BME280;39539;52.202;9.876;2023-02-16T06:31:56;101517.81;;;0.71;100.00
19676;BME280;39539;52.202;9.876;2023-02-16T06:34:21;101511.50;;;0.73;100.00
19676;BME280;39539;52.202;9.876;2023-02-16T06:36:47;101514.59;;;0.78;100.00
19676;BME280;39539;52.202;9.876;2023-02-16T06:39:13;101524.06;;;0.90;100.00
19676;BME280;39539;52.202;9.876;2023-02-16T06:41:38;101505.56;;;0.82;100.00
19676;BME280;39539;52.202;9.876;2023-02-16T06:44:12;101535.25;;;1.04;100.00
19676;BME280;39539;52.202;9.876;2023-02-16T06:46:39;101507.91;;;0.97;100.00
19676;BME280;39539;52.202;9.876;2023-02-16T06:49:04;101530.16;;;1.02;100.00
19676;BME280;39539;52.202;9.876;2023-02-16T06:51:30;101532.25;;;1.08;100.00
19676;BME280;39539;52.202;9.876;2023-02-16T06:53:56;101521.22;;;1.05;100.00
19676;BME280;39539;52.202;9.876;2023-02-16T06:56:23;101523.63;;;1.29;100.00
19676;BME280;39539;52.202;9.876;2023-02-16T06:58:49;101525.94;;;1.43;100.00
19676;BME280;39539;52.202;9.876;2023-02-16T07:01:15;101518.91;;;1.44;100.00
19676;BME280;39539;52.202;9.876;2023-02-16T07:03:50;101521.94;;;1.60;100.00
19676;BME280;39539;52.202;9.876;2023-02-16T07:06:17;101536.13;;;1.78;100.00
19676;BME280;39539;52.202;9.876;2023-02-16T07:08:42;101529.41;;;1.86;100.00
19676;BME280;39539;52.202;9.876;2023-02-16T07:11:08;101516.38;;;1.95;100.00
19676;BME280;39539;52.202;9.876;2023-02-16T07:13:33;101516.94;;;1.99;100.00
19676;BME280;39539;52.202;9.876;2023-02-16T07:16:02;101509.84;;;2.20;100.00
19676;BME280;39539;52.202;9.876;2023-02-16T07:18:27;101512.00;;;2.36;100.00
19676;BME280;39539;52.202;9.876;2023-02-16T07:20:53;101510.63;;;2.42;100.00
19676;BME280;39539;52.202;9.876;2023-02-16T07:23:18;101516.78;;;2.72;100.00
19676;BME280;39539;52.202;9.876;2023-02-16T07:25:45;101526.69;;;3.28;100.00
19676;BME280;39539;52.202;9.876;2023-02-16T07:28:11;101530.19;;;4.04;100.00
19676;BME280;39539;52.202;9.876;2023-02-16T07:30:37;101530.84;;;4.54;99.93
19676;BME280;39539;52.202;9.876;2023-02-16T07:33:03;101522.31;;;4.42;98.15
19676;BME280;39539;52.202;9.876;2023-02-16T07:35:28;101506.03;;;4.28;98.05
19676;BME280;39539;52.202;9.876;2023-02-16T07:37:54;101501.38;;;4.13;98.86
19676;BME280;39539;52.202;9.876;2023-02-16T07:40:19;101506.59;;;3.75;100.00
19676;BME280;39539;52.202;9.876;2023-02-16T07:42:45;101478.00;;;3.33;100.00
19676;BME280;39539;52.202;9.876;2023-02-16T07:45:11;101486.88;;;3.32;100.00
19676;BME280;39539;52.202;9.876;2023-02-16T07:47:36;101488.53;;;3.43;100.00
19676;BME280;39539;52.202;9.876;2023-02-16T07:50:02;101506.59;;;4.22;100.00
19676;BME280;39539;52.202;9.876;2023-02-16T07:52:27;101511.53;;;5.08;95.68
19676;BME280;39539;52.202;9.876;2023-02-16T07:54:58;101507.91;;;6.15;88.40
19676;BME280;39539;52.202;9.876;2023-02-16T07:57:25;101497.56;;;6.64;84.05
19676;BME280;39539;52.202;9.876;2023-02-16T07:59:51;101493.84;;;7.16;81.08
19676;BME280;39539;52.202;9.876;2023-02-16T08:02:18;101480.97;;;7.13;80.15
19676;BME280;39539;52.202;9.876;2023-02-16T08:04:45;101478.97;;;7.64;78.45
19676;BME280;39539;52.202;9.876;2023-02-16T08:07:15;101490.16;;;8.54;75.42
19676;BME280;39539;52.202;9.876;2023-02-16T08:09:41;101481.06;;;9.49;71.32
19676;BME280;39539;52.202;9.876;2023-02-16T08:12:11;101481.31;;;9.77;68.55
19676;BME280;39539;52.202;9.876;2023-02-16T08:14:37;101471.13;;;9.66;67.65
19676;BME280;39539;52.202;9.876;2023-02-16T08:17:05;101450.19;;;8.25;71.73
19676;BME280;39539;52.202;9.876;2023-02-16T08:19:32;101451.28;;;7.99;74.24
19676;BME280;39539;52.202;9.876;2023-02-16T08:21:58;101431.22;;;6.92;78.75
19676;BME280;39539;52.202;9.876;2023-02-16T08:24:26;101428.88;;;6.64;81.82
19676;BME280;39539;52.202;9.876;2023-02-16T08:26:51;101427.34;;;6.37;83.49
19676;BME280;39539;52.202;9.876;2023-02-16T08:29:19;101417.06;;;5.92;87.34
19676;BME280;39539;52.202;9.876;2023-02-16T08:31:46;101418.19;;;5.63;89.56
19676;BME280;39539;52.202;9.876;2023-02-16T08:34:17;101432.31;;;5.80;90.36
19676;BME280;39539;52.202;9.876;2023-02-16T08:36:54;101423.97;;;5.93;88.73
19676;BME280;39539;52.202;9.876;2023-02-16T08:39:26;101420.84;;;5.63;88.63
19676;BME280;39539;52.202;9.876;2023-02-16T08:41:52;101400.31;;;5.23;90.23
19676;BME280;39539;52.202;9.876;2023-02-16T08:44:23;101405.00;;;5.11;92.61
19676;BME280;39539;52.202;9.876;2023-02-16T08:46:50;101414.25;;;5.15;92.07
19676;BME280;39539;52.202;9.876;2023-02-16T08:49:18;101426.09;;;4.93;93.64
19676;BME280;39539;52.202;9.876;2023-02-16T08:51:51;101393.56;;;4.66;95.61
19676;BME280;39539;52.202;9.876;2023-02-16T08:54:22;101423.72;;;5.44;91.34
19676;BME280;39539;52.202;9.876;2023-02-16T08:56:51;101429.31;;;6.43;86.85
19676;BME280;39539;52.202;9.876;2023-02-16T08:59:20;101435.53;;;6.77;85.98
19676;BME280;39539;52.202;9.876;2023-02-16T09:01:46;101418.66;;;7.18;83.70
19676;BME280;39539;52.202;9.876;2023-02-16T09:04:12;101424.19;;;7.81;80.40
19676;BME280;39539;52.202;9.876;2023-02-16T09:06:42;101413.34;;;7.59;79.90
19676;BME280;39539;52.202;9.876;2023-02-16T09:09:09;101397.63;;;7.50;81.48
19676;BME280;39539;52.202;9.876;2023-02-16T09:11:35;101391.53;;;7.49;80.76
19676;BME280;39539;52.202;9.876;2023-02-16T09:14:03;101383.31;;;6.79;82.35
19676;BME280;39539;52.202;9.876;2023-02-16T09:16:29;101384.00;;;6.89;85.33
19676;BME280;39539;52.202;9.876;2023-02-16T09:19:00;101374.91;;;7.08;84.87
19676;BME280;39539;52.202;9.876;2023-02-16T09:21:27;101386.78;;;7.04;85.30
19676;BME280;39539;52.202;9.876;2023-02-16T09:23:56;101374.56;;;7.19;83.45
19676;BME280;39539;52.202;9.876;2023-02-16T09:26:24;101375.56;;;6.93;85.59
19676;BME280;39539;52.202;9.876;2023-02-16T09:28:50;101391.09;;;6.96;87.20
19676;BME280;39539;52.202;9.876;2023-02-16T09:31:18;101394.91;;;7.02;88.60
19676;BME280;39539;52.202;9.876;2023-02-16T09:33:49;101383.97;;;7.30;88.35
19676;BME280;39539;52.202;9.876;2023-02-16T09:36:15;101388.63;;;7.11;89.84
19676;BME280;39539;52.202;9.876;2023-02-16T09:38:45;101385.16;;;7.03;89.17
19676;BME280;39539;52.202;9.876;2023-02-16T09:45:00;101390.44;;;7.03;88.51
19676;BME280;39539;52.202;9.876;2023-02-16T09:47:32;101391.06;;;7.21;88.77
19676;BME280;39539;52.202;9.876;2023-02-16T09:50:02;101398.53;;;7.17;89.14
19676;BME280;39539;52.202;9.876;2023-02-16T09:55:37;101397.50;;;7.51;87.36
19676;BME280;39539;52.202;9.876;2023-02-16T09:58:21;101396.50;;;7.36;89.34
19676;BME280;39539;52.202;9.876;2023-02-16T10:00:56;101401.25;;;7.65;88.07
19676;BME280;39539;52.202;9.876;2023-02-16T10:04:13;101396.50;;;7.36;86.87
19676;BME280;39539;52.202;9.876;2023-02-16T10:07:01;101393.56;;;7.23;86.64
19676;BME280;39539;52.202;9.876;2023-02-16T10:09:32;101410.00;;;7.74;85.82
19676;BME280;39539;52.202;9.876;2023-02-16T10:12:08;101412.81;;;8.20;83.66
19676;BME280;39539;52.202;9.876;2023-02-16T10:14:41;101414.72;;;8.42;82.80
19676;BME280;39539;52.202;9.876;2023-02-16T10:17:37;101403.88;;;8.52;84.02
19676;BME280;39539;52.202;9.876;2023-02-16T10:20:29;101422.16;;;8.70;81.02
19676;BME280;39539;52.202;9.876;2023-02-16T10:25:46;101425.41;;;8.09;81.01
19676;BME280;39539;52.202;9.876;2023-02-16T10:28:20;101417.63;;;7.69;81.88
19676;BME280;39539;52.202;9.876;2023-02-16T10:30:56;101412.19;;;7.62;82.59
19676;BME280;39539;52.202;9.876;2023-02-16T10:39:47;101410.13;;;7.80;83.95
19676;BME280;39539;52.202;9.876;2023-02-16T10:42:39;101394.56;;;7.94;81.51
19676;BME280;39539;52.202;9.876;2023-02-16T10:45:43;101387.38;;;8.10;83.26
19676;BME280;39539;52.202;9.876;2023-02-16T10:48:13;101382.66;;;8.21;81.61
19676;BME280;39539;52.202;9.876;2023-02-16T10:53:39;101376.03;;;8.25;83.72
19676;BME280;39539;52.202;9.876;2023-02-16T10:59:25;101392.03;;;8.40;85.37
19676;BME280;39539;52.202;9.876;2023-02-16T11:01:59;101385.22;;;8.37;82.03
19676;BME280;39539;52.202;9.876;2023-02-16T11:04:45;101391.69;;;8.43;80.25
19676;BME280;39539;52.202;9.876;2023-02-16T11:07:17;101381.69;;;8.53;82.38
19676;BME280;39539;52.202;9.876;2023-02-16T11:09:45;101372.34;;;8.34;83.49
19676;BME280;39539;52.202;9.876;2023-02-16T11:12:24;101375.38;;;8.23;82.33
19676;BME280;39539;52.202;9.876;2023-02-16T11:17:46;101374.25;;;8.17;81.71
19676;BME280;39539;52.202;9.876;2023-02-16T11:25:56;101387.44;;;7.94;85.75
19676;BME280;39539;52.202;9.876;2023-02-16T11:29:05;101376.75;;;7.79;87.55
19676;BME280;39539;52.202;9.876;2023-02-16T11:31:39;101367.41;;;7.36;89.04
19676;BME280;39539;52.202;9.876;2023-02-16T11:34:22;101369.91;;;7.46;89.01
19676;BME280;39539;52.202;9.876;2023-02-16T11:36:50;101357.84;;;7.27;91.17
19676;BME280;39539;52.202;9.876;2023-02-16T11:39:23;101367.13;;;7.14;90.76
19676;BME280;39539;52.202;9.876;2023-02-16T11:41:53;101365.16;;;7.25;92.08
19676;BME280;39539;52.202;9.876;2023-02-16T11:44:41;101374.03;;;7.40;92.61
19676;BME280;39539;52.202;9.876;2023-02-16T11:47:32;101373.25;;;7.87;91.71
19676;BME280;39539;52.202;9.876;2023-02-16T11:50:18;101372.16;;;8.13;89.53
19676;BME280;39539;52.202;9.876;2023-02-16T11:52:45;101377.59;;;8.11;87.54
19676;BME280;39539;52.202;9.876;2023-02-16T11:55:30;101379.38;;;8.19;86.88
19676;BME280;39539;52.202;9.876;2023-02-16T11:58:21;101385.59;;;8.34;85.21
19676;BME280;39539;52.202;9.876;2023-02-16T12:04:13;101377.97;;;8.39;85.15
19676;BME280;39539;52.202;9.876;2023-02-16T12:15:24;101376.03;;;8.79;86.66
19676;BME280;39539;52.202;9.876;2023-02-16T12:23:10;101374.00;;;8.89;84.42
19676;BME280;39539;52.202;9.876;2023-02-16T12:26:13;101380.16;;;9.05;84.20
19676;BME280;39539;52.202;9.876;2023-02-16T12:29:11;101369.53;;;9.05;84.56
19676;BME280;39539;52.202;9.876;2023-02-16T12:34:56;101369.47;;;9.13;84.79
19676;BME280;39539;52.202;9.876;2023-02-16T12:37:27;101362.91;;;9.38;82.89
19676;BME280;39539;52.202;9.876;2023-02-16T12:43:08;101367.88;;;9.71;81.42
19676;BME280;39539;52.202;9.876;2023-02-16T12:45:42;101353.16;;;9.69;81.06
19676;BME280;39539;52.202;9.876;2023-02-16T12:48:32;101353.59;;;9.72;81.07
19676;BME280;39539;52.202;9.876;2023-02-16T12:51:07;101348.56;;;9.77;79.63
19676;BME280;39539;52.202;9.876;2023-02-16T12:56:24;101327.22;;;9.85;79.05
19676;BME280;39539;52.202;9.876;2023-02-16T12:59:02;101332.81;;;9.76;77.86
19676;BME280;39539;52.202;9.876;2023-02-16T13:01:32;101330.34;;;9.44;80.50
19676;BME280;39539;52.202;9.876;2023-02-16T13:09:31;101323.31;;;9.52;79.57
19676;BME280;39539;52.202;9.876;2023-02-16T13:12:46;101308.84;;;9.39;81.37
19676;BME280;39539;52.202;9.876;2023-02-16T13:15:21;101304.63;;;9.15;79.74
19676;BME280;39539;52.202;9.876;2023-02-16T13:20:47;101302.66;;;8.94;82.61
19676;BME280;39539;52.202;9.876;2023-02-16T13:39:19;101296.47;;;8.18;88.92
19676;BME280;39539;52.202;9.876;2023-02-16T13:44:31;101293.47;;;7.98;91.25
19676;BME280;39539;52.202;9.876;2023-02-16T13:47:01;101286.22;;;8.15;91.68
19676;BME280;39539;52.202;9.876;2023-02-16T13:49:34;101281.97;;;8.29;91.12
19676;BME280;39539;52.202;9.876;2023-02-16T13:52:03;101291.47;;;8.46;91.31
19676;BME280;39539;52.202;9.876;2023-02-16T13:54:35;101291.41;;;8.54;89.64
19676;BME280;39539;52.202;9.876;2023-02-16T13:57:02;101288.78;;;8.54;88.17
19676;BME280;39539;52.202;9.876;2023-02-16T14:01:55;101284.59;;;8.60;86.78
19676;BME280;39539;52.202;9.876;2023-02-16T14:06:50;101280.25;;;8.44;89.19
19676;BME280;39539;52.202;9.876;2023-02-16T14:14:38;101282.50;;;8.56;89.83
19676;BME280;39539;52.202;9.876;2023-02-16T14:17:38;101259.38;;;8.49;89.82
19676;BME280;39539;52.202;9.876;2023-02-16T14:30:34;101231.66;;;7.83;93.23
19676;BME280;39539;52.202;9.876;2023-02-16T14:38:29;101247.34;;;8.16;94.25
19676;BME280;39539;52.202;9.876;2023-02-16T14:40:57;101242.31;;;8.21;94.40
19676;BME280;39539;52.202;9.876;2023-02-16T14:43:39;101251.16;;;8.13;93.56
19676;BME280;39539;52.202;9.876;2023-02-16T15:00:39;101253.03;;;8.04;92.44
19676;BME280;39539;52.202;9.876;2023-02-16T15:03:21;101243.84;;;7.92;92.74
19676;BME280;39539;52.202;9.876;2023-02-16T15:05:56;101244.78;;;7.99;92.24
19676;BME280;39539;52.202;9.876;2023-02-16T15:08:26;101238.78;;;8.05;91.55
19676;BME280;39539;52.202;9.876;2023-02-16T15:11:21;101252.34;;;8.10;91.97
19676;BME280;39539;52.202;9.876;2023-02-16T15:13:46;101243.16;;;7.98;92.72
19676;BME280;39539;52.202;9.876;2023-02-16T15:16:18;101238.06;;;7.88;92.80
19676;BME280;39539;52.202;9.876;2023-02-16T15:18:50;101236.59;;;7.86;93.10
19676;BME280;39539;52.202;9.876;2023-02-16T15:21:25;101227.72;;;7.79;93.21
19676;BME280;39539;52.202;9.876;2023-02-16T15:23:57;101235.34;;;7.74;94.25
19676;BME280;39539;52.202;9.876;2023-02-16T15:26:32;101239.63;;;7.75;93.86
19676;BME280;39539;52.202;9.876;2023-02-16T15:29:20;101240.03;;;7.63;94.77
19676;BME280;39539;52.202;9.876;2023-02-16T15:31:49;101225.88;;;7.56;95.23
19676;BME280;39539;52.202;9.876;2023-02-16T15:34:28;101228.84;;;7.53;95.79
19676;BME280;39539;52.202;9.876;2023-02-16T15:36:54;101229.22;;;7.50;95.83
19676;BME280;39539;52.202;9.876;2023-02-16T15:39:30;101224.56;;;7.44;96.84
19676;BME280;39539;52.202;9.876;2023-02-16T15:42:29;101245.06;;;7.50;97.73
19676;BME280;39539;52.202;9.876;2023-02-16T15:44:55;101263.53;;;7.58;97.23
19676;BME280;39539;52.202;9.876;2023-02-16T15:47:25;101252.28;;;7.64;97.49
19676;BME280;39539;52.202;9.876;2023-02-16T15:49:52;101248.63;;;7.65;97.77
19676;BME280;39539;52.202;9.876;2023-02-16T15:52:31;101250.63;;;7.63;98.52
19676;BME280;39539;52.202;9.876;2023-02-16T15:54:59;101258.31;;;7.81;98.34
19676;BME280;39539;52.202;9.876;2023-02-16T15:57:35;101256.84;;;7.79;99.02
19676;BME280;39539;52.202;9.876;2023-02-16T16:02:39;101253.44;;;7.62;99.75